createdAt,value
2018-07-21T00:02:16.861Z,18.80
2018-07-21T00:04:47.323Z,18.80
2018-07-21T00:07:37.198Z,18.60
2018-07-21T00:10:12.502Z,18.70
2018-07-21T00:12:43.886Z,18.80
2018-07-21T00:15:17.316Z,18.70
2018-07-21T00:17:47.796Z,18.70
2018-07-21T00:20:18.283Z,18.40
2018-07-21T00:22:48.773Z,18.60
2018-07-21T00:25:22.765Z,18.60
2018-07-21T00:27:53.560Z,18.50
2018-07-21T00:30:24.080Z,18.60
2018-07-21T00:32:54.618Z,18.60
2018-07-21T00:35:24.993Z,18.60
2018-07-21T00:37:55.452Z,18.30
2018-07-21T00:40:25.916Z,18.50
2018-07-21T00:42:58.128Z,18.40
2018-07-21T00:45:30.874Z,18.40
2018-07-21T00:48:02.108Z,18.40
2018-07-21T00:50:32.617Z,18.40
2018-07-21T00:53:03.094Z,18.30
2018-07-21T00:55:33.556Z,18.20
2018-07-21T00:58:04.044Z,18.30
2018-07-21T01:00:35.280Z,18.30
2018-07-21T01:05:52.590Z,18.40
2018-07-21T01:08:23.260Z,18.50
2018-07-21T01:10:55.029Z,18.30
2018-07-21T01:13:25.430Z,18.30
2018-07-21T01:15:55.903Z,18.30
2018-07-21T01:18:26.367Z,18.30
2018-07-21T01:20:57.881Z,18.50
2018-07-21T01:23:28.350Z,18.50
2018-07-21T01:26:00.399Z,18.60
2018-07-21T01:28:31.595Z,18.60
2018-07-21T01:31:03.084Z,18.50
2018-07-21T01:33:36.642Z,18.50
2018-07-21T01:36:08.892Z,18.40
2018-07-21T01:38:41.326Z,18.40
2018-07-21T01:41:16.997Z,18.60
2018-07-21T01:43:47.457Z,18.60
2018-07-21T01:46:17.941Z,18.40
2018-07-21T01:48:48.451Z,18.70
2018-07-21T01:51:18.831Z,18.40
2018-07-21T01:53:49.299Z,18.30
2018-07-21T01:56:20.790Z,18.30
2018-07-21T01:58:54.131Z,18.40
2018-07-21T02:01:25.373Z,18.30
2018-07-21T02:03:56.659Z,18.30
2018-07-21T02:06:29.811Z,18.20
2018-07-21T02:09:00.414Z,18.30
2018-07-21T02:11:30.908Z,18.30
2018-07-21T02:14:02.398Z,18.10
2018-07-21T02:16:32.851Z,18.10
2018-07-21T02:19:04.364Z,18.20
2018-07-21T02:21:35.685Z,18.20
2018-07-21T02:24:06.934Z,18.30
2018-07-21T02:26:37.440Z,18.30
2018-07-21T02:29:08.844Z,18.70
2018-07-21T02:31:39.326Z,18.70
2018-07-21T02:34:09.831Z,18.60
2018-07-21T02:36:41.084Z,18.50
2018-07-21T02:39:12.287Z,18.50
2018-07-21T02:41:43.715Z,18.40
2018-07-21T02:44:16.317Z,18.60
2018-07-21T02:46:46.676Z,18.60
2018-07-21T02:49:17.270Z,18.60
2018-07-21T02:51:52.757Z,18.60
2018-07-21T02:54:24.125Z,18.60
2018-07-21T02:56:54.725Z,18.60
2018-07-21T02:59:25.204Z,18.40
2018-07-21T03:01:55.620Z,18.60
2018-07-21T03:04:26.089Z,18.60
2018-07-21T03:06:57.376Z,18.50
2018-07-21T03:09:28.636Z,18.60
2018-07-21T03:11:59.563Z,18.60
2018-07-21T03:14:30.843Z,18.20
2018-07-21T03:17:01.534Z,18.20
2018-07-21T03:19:31.898Z,18.30
2018-07-21T03:22:02.375Z,18.30
2018-07-21T03:24:32.878Z,18.10
2018-07-21T03:27:05.444Z,18.20
2018-07-21T03:29:35.900Z,18.20
2018-07-21T03:32:06.293Z,18.20
2018-07-21T03:34:36.777Z,18.10
2018-07-21T03:37:07.987Z,18.20
2018-07-21T03:39:43.611Z,18.10
2018-07-21T03:42:14.258Z,18.10
2018-07-21T03:44:48.799Z,18.00
2018-07-21T03:47:19.873Z,18.00
2018-07-21T03:49:51.082Z,18.20
2018-07-21T03:52:21.482Z,18.20
2018-07-21T03:54:52.089Z,18.10
2018-07-21T03:57:23.818Z,17.90
2018-07-21T03:59:58.324Z,17.80
2018-07-21T04:02:28.735Z,17.90
2018-07-21T04:05:03.682Z,17.90
2018-07-21T04:07:34.157Z,17.70
2018-07-21T04:10:04.573Z,17.70
2018-07-21T04:12:35.785Z,17.50
2018-07-21T04:15:06.110Z,17.50
2018-07-21T04:17:36.444Z,17.60
2018-07-21T04:20:06.828Z,17.80
2018-07-21T04:22:37.212Z,17.80
2018-07-21T04:25:07.619Z,17.60
2018-07-21T04:27:38.462Z,17.80
2018-07-21T04:30:08.929Z,17.80
2018-07-21T04:32:39.348Z,17.90
2018-07-21T04:35:10.486Z,17.80
2018-07-21T04:37:40.874Z,17.80
2018-07-21T04:40:32.707Z,17.90
2018-07-21T04:43:08.723Z,17.60
2018-07-21T04:45:39.137Z,17.60
2018-07-21T04:48:10.313Z,17.60
2018-07-21T04:50:40.632Z,17.60
2018-07-21T04:53:11.417Z,17.70
2018-07-21T04:55:41.843Z,17.90
2018-07-21T04:58:12.222Z,17.70
2018-07-21T05:00:42.728Z,17.60
2018-07-21T05:03:13.038Z,17.60
2018-07-21T05:05:44.172Z,17.70
2018-07-21T05:08:14.667Z,17.90
2018-07-21T05:11:04.183Z,17.80
2018-07-21T05:13:35.089Z,17.80
2018-07-21T05:16:05.682Z,17.80
2018-07-21T05:18:36.072Z,17.80
2018-07-21T05:21:06.486Z,17.70
2018-07-21T05:23:38.144Z,17.90
2018-07-21T05:28:57.512Z,17.70
2018-07-21T05:31:27.887Z,17.90
2018-07-21T05:33:59.042Z,17.90
2018-07-21T05:36:30.214Z,17.80
2018-07-21T05:39:00.625Z,17.80
2018-07-21T05:41:32.368Z,18.00
2018-07-21T05:44:03.589Z,17.80
2018-07-21T05:46:33.973Z,17.80
2018-07-21T05:49:05.373Z,17.90
2018-07-21T05:51:35.785Z,17.80
2018-07-21T05:54:06.103Z,17.70
2018-07-21T05:56:36.477Z,18.00
2018-07-21T05:59:07.192Z,18.10
2018-07-21T06:01:37.698Z,18.10
2018-07-21T06:04:08.084Z,17.90
2018-07-21T06:06:38.690Z,17.70
2018-07-21T06:09:10.340Z,18.00
2018-07-21T06:11:41.180Z,18.00
2018-07-21T06:14:12.349Z,18.10
2018-07-21T06:16:42.669Z,18.10
2018-07-21T06:19:13.050Z,18.20
2018-07-21T06:21:43.520Z,18.70
2018-07-21T06:24:14.680Z,18.40
2018-07-21T06:26:45.068Z,18.40
2018-07-21T06:29:15.559Z,18.40
2018-07-21T06:31:45.878Z,18.70
2018-07-21T06:34:16.193Z,18.90
2018-07-21T06:36:46.608Z,18.80
2018-07-21T06:39:17.215Z,19.10
2018-07-21T06:41:47.896Z,19.60
2018-07-21T06:44:20.387Z,19.50
2018-07-21T06:46:50.993Z,19.50
2018-07-21T06:49:21.371Z,19.50
2018-07-21T06:51:51.774Z,19.50
2018-07-21T06:54:22.106Z,19.60
2018-07-21T06:56:52.969Z,19.70
2018-07-21T06:59:23.395Z,19.60
2018-07-21T07:01:53.706Z,19.70
2018-07-21T07:04:24.394Z,19.90
2018-07-21T07:06:55.034Z,19.90
2018-07-21T07:09:25.338Z,20.00
2018-07-21T07:11:57.014Z,20.10
2018-07-21T07:14:27.418Z,20.40
2018-07-21T07:16:58.376Z,20.30
2018-07-21T07:19:29.322Z,20.50
2018-07-21T07:21:59.751Z,20.50
2018-07-21T07:24:35.260Z,20.40
2018-07-21T07:27:06.987Z,20.20
2018-07-21T07:29:37.386Z,20.20
2018-07-21T07:32:07.781Z,20.30
2018-07-21T07:34:38.524Z,20.60
2018-07-21T07:37:09.864Z,20.70
2018-07-21T07:39:40.463Z,20.60
2018-07-21T07:42:10.916Z,20.80
2018-07-21T07:44:42.547Z,21.10
2018-07-21T07:47:13.879Z,21.10
2018-07-21T07:49:44.282Z,21.30
2018-07-21T07:52:18.616Z,21.20
2018-07-21T07:54:48.975Z,21.40
2018-07-21T07:57:19.881Z,21.40
2018-07-21T07:59:50.289Z,21.40
2018-07-21T08:02:20.708Z,21.30
2018-07-21T08:04:51.408Z,21.60
2018-07-21T08:07:22.554Z,21.80
2018-07-21T08:09:53.753Z,21.80
2018-07-21T08:12:28.480Z,21.80
2018-07-21T08:15:02.988Z,21.80
2018-07-21T08:17:35.105Z,21.70
2018-07-21T08:20:05.421Z,21.80
2018-07-21T08:22:35.836Z,22.00
2018-07-21T08:25:06.866Z,22.00
2018-07-21T08:27:37.217Z,22.10
2018-07-21T08:30:07.846Z,22.20
2018-07-21T08:32:38.222Z,22.50
2018-07-21T08:35:08.603Z,22.40
2018-07-21T08:37:39.000Z,22.70
2018-07-21T08:40:09.628Z,22.70
2018-07-21T08:42:47.295Z,22.80
2018-07-21T08:45:17.800Z,22.90
2018-07-21T08:47:48.188Z,22.60
2018-07-21T08:50:37.967Z,22.30
2018-07-21T08:53:08.349Z,22.50
2018-07-21T08:55:38.774Z,22.50
2018-07-21T08:58:09.170Z,22.40
2018-07-21T09:00:39.555Z,22.60
2018-07-21T09:03:09.944Z,22.80
2018-07-21T09:05:42.182Z,22.80
2018-07-21T09:08:12.542Z,22.80
2018-07-21T09:10:42.928Z,22.70
2018-07-21T09:13:13.411Z,22.90
2018-07-21T09:15:43.709Z,22.80
2018-07-21T09:18:14.092Z,23.20
2018-07-21T09:20:45.524Z,23.20
2018-07-21T09:23:15.935Z,22.40
2018-07-21T09:25:47.099Z,22.90
2018-07-21T09:28:17.529Z,22.90
2018-07-21T09:30:47.913Z,22.60
2018-07-21T09:33:18.581Z,22.70
2018-07-21T09:38:37.744Z,22.80
2018-07-21T09:41:08.089Z,22.70
2018-07-21T09:43:38.466Z,23.00
2018-07-21T09:46:08.870Z,23.10
2018-07-21T09:48:44.339Z,23.00
2018-07-21T09:51:14.720Z,23.10
2018-07-21T09:53:45.106Z,23.00
2018-07-21T09:56:17.117Z,23.00
2018-07-21T09:58:47.485Z,23.20
2018-07-21T10:01:17.872Z,22.70
2018-07-21T10:03:48.387Z,22.50
2018-07-21T10:06:18.776Z,22.90
2018-07-21T10:08:50.074Z,22.90
2018-07-21T10:11:20.492Z,23.40
2018-07-21T10:13:50.975Z,23.50
2018-07-21T10:16:21.562Z,23.20
2018-07-21T10:18:53.385Z,23.30
2018-07-21T10:21:23.803Z,23.30
2018-07-21T10:23:54.193Z,23.40
2018-07-21T10:26:55.330Z,23.20
2018-07-21T10:29:26.737Z,23.20
2018-07-21T10:31:57.210Z,23.50
2018-07-21T10:34:29.804Z,23.60
2018-07-21T10:37:00.206Z,23.50
2018-07-21T10:39:30.677Z,23.50
2018-07-21T10:42:01.252Z,23.60
2018-07-21T10:44:32.397Z,23.60
2018-07-21T10:47:03.543Z,24.00
2018-07-21T10:49:33.953Z,23.90
2018-07-21T10:52:04.457Z,24.00
2018-07-21T10:54:34.849Z,23.80
2018-07-21T10:57:05.280Z,23.80
2018-07-21T10:59:35.781Z,23.70
2018-07-21T11:02:06.242Z,23.80
2018-07-21T11:04:38.710Z,23.90
2018-07-21T11:07:13.201Z,24.10
2018-07-21T11:09:43.599Z,23.90
2018-07-21T11:12:14.011Z,24.10
2018-07-21T11:14:44.413Z,24.30
2018-07-21T11:17:15.738Z,24.20
2018-07-21T11:19:46.843Z,24.30
2018-07-21T11:22:17.366Z,24.20
2018-07-21T11:24:48.664Z,24.10
2018-07-21T11:27:19.012Z,24.20
2018-07-21T11:29:51.469Z,24.20
2018-07-21T11:32:21.860Z,24.00
2018-07-21T11:34:54.074Z,24.20
2018-07-21T11:37:24.459Z,24.40
2018-07-21T11:39:54.842Z,24.30
2018-07-21T11:42:25.247Z,24.40
2018-07-21T11:44:56.394Z,24.40
2018-07-21T11:47:26.981Z,24.40
2018-07-21T11:49:57.405Z,24.20
2018-07-21T11:52:27.806Z,24.70
2018-07-21T11:54:58.209Z,24.80
2018-07-21T11:57:29.322Z,24.70
2018-07-21T11:59:59.692Z,24.70
2018-07-21T12:02:30.123Z,24.70
2018-07-21T12:05:00.565Z,24.60
2018-07-21T12:07:30.984Z,23.80
2018-07-21T12:10:01.381Z,23.60
2018-07-21T12:12:31.841Z,24.00
2018-07-21T12:15:02.178Z,24.40
2018-07-21T12:17:32.582Z,24.80
2018-07-21T12:20:03.055Z,24.40
2018-07-21T12:22:33.466Z,24.00
2018-07-21T12:25:03.859Z,23.90
2018-07-21T12:27:34.326Z,23.70
2018-07-21T12:30:04.608Z,23.70
2018-07-21T12:32:35.002Z,23.60
2018-07-21T12:35:05.424Z,23.70
2018-07-21T12:37:35.840Z,23.60
2018-07-21T12:40:06.350Z,23.60
2018-07-21T12:42:55.008Z,23.50
2018-07-21T12:45:46.836Z,23.70
2018-07-21T12:48:18.292Z,24.30
2018-07-21T12:50:49.360Z,24.30
2018-07-21T12:53:19.793Z,24.00
2018-07-21T12:55:50.150Z,24.30
2018-07-21T12:58:20.480Z,24.70
2018-07-21T13:00:50.885Z,24.90
2018-07-21T13:03:22.108Z,25.20
2018-07-21T13:05:52.459Z,25.20
2018-07-21T13:08:29.166Z,25.20
2018-07-21T13:11:00.757Z,25.10
2018-07-21T13:13:31.151Z,25.30
2018-07-21T13:16:01.576Z,25.40
2018-07-21T13:18:31.992Z,24.90
2018-07-21T13:21:02.315Z,24.60
2018-07-21T13:23:32.750Z,24.60
2018-07-21T13:26:03.129Z,24.40
2018-07-21T13:28:33.511Z,24.40
2018-07-21T13:31:08.017Z,24.80
2018-07-21T13:33:38.411Z,24.90
2018-07-21T13:36:08.802Z,25.20
2018-07-21T13:38:39.146Z,25.20
2018-07-21T13:41:09.552Z,25.20
2018-07-21T13:43:41.987Z,25.30
2018-07-21T13:49:00.571Z,25.30
2018-07-21T13:51:31.047Z,25.10
2018-07-21T13:54:01.395Z,25.30
2018-07-21T13:56:31.764Z,25.10
2018-07-21T13:59:02.175Z,25.00
2018-07-21T14:01:32.570Z,24.70
2018-07-21T14:04:03.729Z,24.20
2018-07-21T14:06:34.844Z,24.00
2018-07-21T14:09:05.287Z,24.00
2018-07-21T14:11:36.429Z,23.90
2018-07-21T14:14:06.861Z,23.80
2018-07-21T14:16:38.010Z,23.70
2018-07-21T14:19:09.172Z,24.10
2018-07-21T14:21:39.627Z,24.00
2018-07-21T14:24:10.023Z,24.00
2018-07-21T14:26:40.395Z,24.20
2018-07-21T14:29:10.813Z,24.50
2018-07-21T14:31:41.148Z,24.80
2018-07-21T14:34:11.535Z,24.80
2018-07-21T14:36:41.951Z,24.90
2018-07-21T14:39:12.339Z,25.00
2018-07-21T14:41:42.666Z,24.90
2018-07-21T14:44:13.700Z,24.60
2018-07-21T14:46:45.115Z,25.00
2018-07-21T14:49:15.480Z,25.00
2018-07-21T14:51:46.097Z,24.80
2018-07-21T14:54:16.489Z,24.90
2018-07-21T14:56:56.690Z,25.00
2018-07-21T14:59:27.071Z,25.00
2018-07-21T15:01:57.450Z,25.00
2018-07-21T15:04:27.871Z,24.90
2018-07-21T15:07:05.312Z,24.70
2018-07-21T15:09:35.773Z,24.60
2018-07-21T15:12:09.233Z,24.70
2018-07-21T15:14:45.222Z,25.00
2018-07-21T15:17:18.667Z,25.10
2018-07-21T15:19:49.054Z,25.30
2018-07-21T15:22:19.474Z,25.20
2018-07-21T15:24:57.061Z,25.10
2018-07-21T15:27:27.471Z,25.10
2018-07-21T15:29:57.850Z,25.00
2018-07-21T15:32:28.224Z,25.00
2018-07-21T15:34:58.575Z,24.70
2018-07-21T15:37:36.286Z,24.70
2018-07-21T15:40:06.705Z,25.00
2018-07-21T15:42:39.146Z,25.10
2018-07-21T15:45:10.295Z,25.00
2018-07-21T15:47:40.700Z,25.00
2018-07-21T15:50:15.109Z,24.70
2018-07-21T15:52:51.227Z,24.30
2018-07-21T15:55:24.679Z,24.40
2018-07-21T15:57:55.834Z,24.20
2018-07-21T16:00:27.017Z,23.90
2018-07-21T16:03:01.515Z,23.90
2018-07-21T16:05:31.876Z,24.00
2018-07-21T16:08:03.311Z,24.00
2018-07-21T16:10:35.747Z,23.80
2018-07-21T16:13:07.083Z,23.90
2018-07-21T16:15:37.476Z,23.90
2018-07-21T16:18:16.117Z,23.70
2018-07-21T16:20:47.494Z,23.80
2018-07-21T16:23:18.650Z,23.80
2018-07-21T16:25:49.000Z,23.80
2018-07-21T16:28:26.798Z,24.00
2018-07-21T16:30:57.218Z,24.00
2018-07-21T16:33:27.658Z,23.90
2018-07-21T16:35:57.999Z,24.00
2018-07-21T16:38:29.454Z,24.20
2018-07-21T16:41:00.495Z,24.10
2018-07-21T16:43:33.841Z,24.20
2018-07-21T16:46:05.937Z,24.40
2018-07-21T16:48:37.354Z,24.30
2018-07-21T16:51:08.509Z,24.30
2018-07-21T16:53:38.933Z,24.30
2018-07-21T16:56:09.329Z,24.20
2018-07-21T16:58:39.707Z,24.20
2018-07-21T17:01:10.060Z,24.10
2018-07-21T17:03:40.462Z,24.10
2018-07-21T17:06:11.039Z,24.10
2018-07-21T17:08:41.446Z,24.10
2018-07-21T17:11:11.833Z,24.10
2018-07-21T17:13:42.221Z,24.00
2018-07-21T17:16:12.644Z,23.90
2018-07-21T17:18:43.024Z,23.70
2018-07-21T17:21:13.517Z,23.60
2018-07-21T17:23:43.865Z,23.60
2018-07-21T17:26:14.211Z,23.50
2018-07-21T17:28:46.655Z,23.60
2018-07-21T17:31:17.066Z,23.60
2018-07-21T17:33:47.649Z,23.60
2018-07-21T17:36:22.133Z,23.70
2018-07-21T17:38:52.550Z,23.60
2018-07-21T17:41:23.768Z,23.60
2018-07-21T17:43:54.102Z,23.60
2018-07-21T17:46:24.533Z,23.50
2018-07-21T17:48:54.925Z,23.50
2018-07-21T17:51:44.721Z,23.50
2018-07-21T17:54:15.039Z,23.50
2018-07-21T17:56:48.511Z,23.30
2018-07-21T17:59:19.963Z,23.40
2018-07-21T18:04:44.505Z,23.40
2018-07-21T18:07:16.869Z,23.40
2018-07-21T18:09:54.583Z,23.20
2018-07-21T18:12:24.976Z,23.30
2018-07-21T18:14:55.372Z,23.30
2018-07-21T18:17:25.781Z,23.30
2018-07-21T18:19:56.094Z,23.20
2018-07-21T18:22:26.406Z,23.20
2018-07-21T18:24:56.811Z,23.20
2018-07-21T18:27:31.277Z,23.10
2018-07-21T18:30:01.670Z,23.10
2018-07-21T18:32:32.090Z,23.10
2018-07-21T18:35:05.490Z,23.10
2018-07-21T18:37:41.019Z,23.10
2018-07-21T18:40:11.449Z,23.00
2018-07-21T18:42:41.790Z,23.00
2018-07-21T18:45:12.439Z,22.90
2018-07-21T18:47:42.764Z,22.90
2018-07-21T18:50:12.472Z,22.90
2018-07-21T18:52:42.814Z,22.90
2018-07-21T18:55:13.201Z,22.90
2018-07-21T18:57:43.579Z,22.80
2018-07-21T19:00:14.768Z,22.60
2018-07-21T19:02:45.164Z,22.60
2018-07-21T19:05:16.295Z,22.50
2018-07-21T19:07:46.732Z,22.50
2018-07-21T19:10:19.164Z,22.40
2018-07-21T19:12:56.658Z,22.50
2018-07-21T19:15:28.053Z,22.50
2018-07-21T19:17:59.199Z,22.40
2018-07-21T19:20:30.385Z,22.30
2018-07-21T19:23:06.917Z,22.30
2018-07-21T19:25:38.095Z,22.40
2018-07-21T19:28:08.471Z,22.40
2018-07-21T19:30:39.051Z,22.30
2018-07-21T19:33:11.417Z,22.30
2018-07-21T19:35:41.814Z,22.30
2018-07-21T19:38:12.986Z,22.10
2018-07-21T19:40:43.406Z,22.10
2018-07-21T19:43:13.977Z,22.10
2018-07-21T19:45:44.436Z,22.10
2018-07-21T19:48:15.508Z,22.10
2018-07-21T19:50:45.893Z,22.10
2018-07-21T19:53:18.676Z,22.20
2018-07-21T19:55:49.043Z,22.00
2018-07-21T19:58:19.510Z,22.10
2018-07-21T20:00:49.860Z,22.10
2018-07-21T20:03:21.233Z,22.00
2018-07-21T20:05:52.362Z,21.90
2018-07-21T20:08:23.695Z,21.80
2018-07-21T20:10:54.090Z,21.80
2018-07-21T20:13:26.745Z,21.70
2018-07-21T20:16:05.032Z,21.80
2018-07-21T20:18:36.121Z,21.80
2018-07-21T20:21:06.600Z,21.70
2018-07-21T20:23:39.414Z,21.70
2018-07-21T20:26:09.781Z,21.80
2018-07-21T20:28:40.161Z,21.70
2018-07-21T20:31:10.573Z,21.60
2018-07-21T20:33:41.732Z,21.60
2018-07-21T20:36:12.060Z,21.60
2018-07-21T20:38:42.651Z,21.60
2018-07-21T20:41:13.700Z,21.60
2018-07-21T20:43:44.127Z,21.60
2018-07-21T20:46:29.481Z,21.60
2018-07-21T20:48:59.774Z,21.60
2018-07-21T20:51:31.110Z,21.50
2018-07-21T20:54:02.483Z,21.40
2018-07-21T20:56:32.861Z,21.40
2018-07-21T20:59:03.239Z,21.40
2018-07-21T21:01:33.652Z,21.40
2018-07-21T21:04:04.039Z,21.40
2018-07-21T21:06:36.459Z,21.50
2018-07-21T21:09:06.866Z,21.40
2018-07-21T21:11:37.268Z,21.30
2018-07-21T21:14:08.419Z,21.30
2018-07-21T21:16:38.833Z,21.30
2018-07-21T21:19:09.209Z,21.20
2018-07-21T21:21:39.615Z,21.00
2018-07-21T21:24:10.032Z,21.00
2018-07-21T21:26:40.417Z,21.00
2018-07-21T21:29:10.810Z,20.90
2018-07-21T21:31:41.209Z,20.80
2018-07-21T21:34:12.375Z,20.80
2018-07-21T21:36:42.751Z,20.80
2018-07-21T21:39:13.174Z,20.80
2018-07-21T21:41:43.516Z,20.80
2018-07-21T21:44:13.901Z,20.80
2018-07-21T21:46:50.457Z,20.60
2018-07-21T21:49:20.780Z,20.60
2018-07-21T21:51:51.193Z,20.50
2018-07-21T21:54:21.608Z,20.50
2018-07-21T21:56:52.048Z,20.50
2018-07-21T21:59:40.665Z,20.50
2018-07-21T22:02:10.988Z,20.50
2018-07-21T22:04:41.383Z,20.40
2018-07-21T22:07:11.766Z,20.40
2018-07-21T22:09:42.913Z,20.40
2018-07-21T22:15:01.410Z,20.40
2018-07-21T22:17:31.806Z,20.30
2018-07-21T22:20:02.953Z,20.30
2018-07-21T22:22:34.121Z,20.20
2018-07-21T22:25:04.533Z,20.20
2018-07-21T22:27:35.664Z,20.20
2018-07-21T22:30:06.084Z,20.20
2018-07-21T22:32:38.517Z,20.10
2018-07-21T22:35:16.231Z,20.20
2018-07-21T22:37:46.662Z,20.20
2018-07-21T22:40:17.770Z,20.20
2018-07-21T22:42:48.212Z,20.20
2018-07-21T22:45:18.604Z,20.00
2018-07-21T22:47:49.012Z,20.00
2018-07-21T22:50:20.869Z,19.90
2018-07-21T22:52:51.263Z,19.90
2018-07-21T22:55:49.362Z,20.00
2018-07-21T22:58:19.753Z,20.00
2018-07-21T23:00:50.135Z,20.00
2018-07-21T23:03:20.559Z,19.90
2018-07-21T23:05:51.701Z,19.80
2018-07-21T23:08:22.106Z,19.80
2018-07-21T23:10:52.534Z,19.80
2018-07-21T23:13:22.934Z,19.90
2018-07-21T23:16:11.629Z,20.10
2018-07-21T23:18:42.026Z,20.00
2018-07-21T23:21:31.740Z,19.90
2018-07-21T23:24:02.119Z,19.70
2018-07-21T23:26:32.496Z,19.60
2018-07-21T23:29:03.677Z,19.40
2018-07-21T23:31:34.781Z,19.40
2018-07-21T23:34:05.171Z,19.50
2018-07-21T23:36:35.601Z,19.40
2018-07-21T23:39:25.391Z,19.50
2018-07-21T23:42:02.874Z,19.50
2018-07-21T23:44:35.201Z,19.40
2018-07-21T23:47:05.628Z,19.40
2018-07-21T23:49:36.033Z,19.40
2018-07-21T23:52:06.358Z,19.40
2018-07-21T23:54:36.740Z,19.30
2018-07-21T23:57:12.267Z,19.40
2018-07-21T23:59:42.651Z,19.40
